| time (UTC) | temp F | wind direction | speed knots | gust knots | rain 1hr in | rain 24hr in | rain mn in | humidity % | barometer mb |
| 20260507060502 | 40 | 191 | 0.0 | 0.0 | 0.00 | 0.57 | 0.00 | 93 | 1013.1 |
| 20260507055502 | 40 | 191 | 0.0 | 0.0 | 0.00 | 0.58 | 0.00 | 93 | 1013.2 |
| 20260507055002 | 40 | 191 | 0.0 | 0.0 | 0.00 | 0.58 | 0.00 | 92 | 1013.2 |
| 20260507054502 | 41 | 191 | 0.0 | 0.0 | 0.00 | 0.59 | 0.00 | 92 | 1013.4 |
| 20260507054002 | 41 | 191 | 0.0 | 0.0 | 0.00 | 0.59 | 0.00 | 92 | 1013.4 |
| 20260507053502 | 41 | 190 | 0.0 | 0.0 | 0.00 | 0.60 | 0.00 | 92 | 1013.4 |
| 20260507053002 | 41 | 266 | 0.0 | 0.0 | 0.00 | 0.61 | 0.00 | 92 | 1013.4 |
| 20260507052002 | 41 | 264 | 0.0 | 0.9 | 0.00 | 0.63 | 0.00 | 92 | 1013.5 |
| 20260507051502 | 41 | 292 | 0.0 | 0.9 | 0.00 | 0.64 | 0.00 | 92 | 1013.6 |
| 20260507051002 | 41 | 283 | 0.0 | 2.6 | 0.00 | 0.65 | 0.00 | 92 | 1013.6 |
| 20260507050502 | 41 | 269 | 0.9 | 2.6 | 0.00 | 0.66 | 0.00 | 93 | 1013.6 |
| 20260507050002 | 42 | 284 | 0.9 | 1.7 | 0.00 | 0.67 | 0.00 | 93 | 1013.6 |
| 20260507045502 | 42 | 293 | 0.0 | 2.6 | 0.00 | 0.68 | 0.00 | 94 | 1013.6 |
| 20260507045002 | 42 | 303 | 0.0 | 2.6 | 0.00 | 0.68 | 0.00 | 94 | 1013.6 |
| 20260507044502 | 42 | 257 | 0.0 | 2.6 | 0.00 | 0.69 | 0.00 | 94 | 1013.6 |
| 20260507044003 | 42 | 293 | 0.9 | 2.6 | 0.00 | 0.70 | 0.00 | 94 | 1013.6 |
| 20260507043502 | 42 | 293 | 0.9 | 2.6 | 0.00 | 0.70 | 0.00 | 95 | 1013.5 |
| 20260507043002 | 42 | 278 | 0.9 | 2.6 | 0.00 | 0.70 | 0.00 | 95 | 1013.5 |
| 20260507042503 | 42 | 280 | 1.7 | 4.3 | 0.00 | 0.70 | 0.00 | 96 | 1013.5 |
| 20260507042003 | 42 | 295 | 0.9 | 2.6 | 0.00 | 0.71 | 0.00 | 96 | 1013.5 |
| 20260507041502 | 42 | 272 | 0.9 | 2.6 | 0.00 | 0.71 | 0.00 | 96 | 1013.4 |
| 20260507040502 | 42 | 282 | 0.9 | 1.7 | 0.00 | 0.73 | 0.00 | 97 | 1013.4 |
| 20260507040002 | 42 | 255 | 0.9 | 2.6 | 0.00 | 0.73 | 0.00 | 97 | 1013.4 |
| 20260507035502 | 42 | 279 | 0.9 | 2.6 | 0.00 | 0.73 | 0.73 | 97 | 1013.4 |
| 20260507035003 | 42 | 293 | 0.9 | 2.6 | 0.00 | 0.74 | 0.73 | 97 | 1013.4 |
| 20260507034502 | 42 | 273 | 0.0 | 1.7 | 0.00 | 0.74 | 0.73 | 97 | 1013.4 |
| 20260507034003 | 42 | 249 | 0.9 | 2.6 | 0.00 | 0.74 | 0.73 | 97 | 1013.4 |
| 20260507033002 | 42 | 259 | 0.0 | 2.6 | 0.00 | 0.75 | 0.73 | 97 | 1013.2 |
| 20260507032502 | 41 | 245 | 0.0 | 2.6 | 0.00 | 0.75 | 0.73 | 97 | 1013.2 |
| 20260507032002 | 41 | 221 | 0.0 | 0.9 | 0.00 | 0.75 | 0.73 | 97 | 1013.2 |
| 20260507031503 | 42 | 246 | 0.0 | 1.7 | 0.00 | 0.75 | 0.73 | 97 | 1013.4 |
| 20260507031003 | 42 | 265 | 0.0 | 0.9 | 0.00 | 0.75 | 0.73 | 97 | 1013.3 |
| 20260507025502 | 42 | 99 | 0.0 | 0.9 | 0.00 | 0.75 | 0.73 | 96 | 1013.2 |
| 20260507025002 | 42 | 294 | 0.0 | 2.6 | 0.00 | 0.75 | 0.73 | 97 | 1013.1 |
| 20260507024503 | 42 | 242 | 0.9 | 2.6 | 0.00 | 0.75 | 0.73 | 97 | 1013.2 |
| 20260507024003 | 42 | 278 | 0.9 | 2.6 | 0.00 | 0.75 | 0.73 | 96 | 1013.1 |
| 20260507023503 | 42 | 291 | 0.0 | 0.9 | 0.00 | 0.76 | 0.73 | 96 | 1013.0 |
| 20260507022503 | 42 | 261 | 0.9 | 2.6 | 0.00 | 0.76 | 0.73 | 96 | 1013.2 |
| 20260507022002 | 42 | 273 | 0.0 | 2.6 | 0.00 | 0.76 | 0.73 | 96 | 1013.3 |
| 20260507021003 | 41 | 221 | 0.0 | 1.7 | 0.00 | 0.77 | 0.73 | 96 | 1013.3 |
| 20260507020502 | 41 | 277 | 0.0 | 1.7 | 0.00 | 0.77 | 0.73 | 96 | 1013.2 |
| 20260507020003 | 41 | 243 | 0.0 | 2.6 | 0.00 | 0.78 | 0.73 | 96 | 1013.3 |
| 20260507015502 | 41 | 266 | 0.9 | 1.7 | 0.01 | 0.78 | 0.73 | 96 | 1013.2 |
| 20260507014503 | 41 | 255 | 0.0 | 0.9 | 0.01 | 0.79 | 0.73 | 95 | 1013.1 |
| 20260507014002 | 41 | 273 | 0.0 | 0.9 | 0.01 | 0.80 | 0.73 | 95 | 1013.1 |
| 20260507013503 | 41 | 258 | 0.9 | 2.6 | 0.02 | 0.80 | 0.73 | 95 | 1013.3 |
| 20260507013002 | 41 | 273 | 0.9 | 2.6 | 0.02 | 0.80 | 0.73 | 95 | 1013.3 |
| 20260507012002 | 41 | 282 | 0.9 | 2.6 | 0.02 | 0.80 | 0.73 | 95 | 1013.2 |
| 20260507011503 | 42 | 282 | 2.6 | 6.1 | 0.02 | 0.80 | 0.73 | 94 | 1013.1 |
| 20260507011003 | 42 | 295 | 2.6 | 6.1 | 0.02 | 0.80 | 0.73 | 94 | 1013.1 |
| 20260507010502 | 42 | 316 | 1.7 | 2.6 | 0.02 | 0.80 | 0.73 | 94 | 1013.0 |
| 20260507010003 | 42 | 312 | 0.9 | 2.6 | 0.02 | 0.80 | 0.73 | 94 | 1012.9 |
| 20260507005503 | 43 | 318 | 0.9 | 2.6 | 0.01 | 0.79 | 0.72 | 93 | 1012.9 |
| 20260507004002 | 44 | 322 | 1.7 | 5.2 | 0.01 | 0.80 | 0.72 | 93 | 1012.6 |
| 20260507003503 | 45 | 299 | 2.6 | 7.0 | 0.00 | 0.79 | 0.71 | 93 | 1012.5 |
| 20260507003002 | 45 | 293 | 2.6 | 4.3 | 0.00 | 0.79 | 0.71 | 93 | 1012.5 |
| 20260507002503 | 45 | 312 | 2.6 | 2.6 | 0.00 | 0.80 | 0.71 | 93 | 1012.4 |
| 20260507002003 | 45 | 326 | 1.7 | 2.6 | 0.00 | 0.80 | 0.71 | 92 | 1012.2 |
| 20260507001502 | 46 | 325 | 2.6 | 4.3 | 0.00 | 0.80 | 0.71 | 92 | 1012.2 |
| 20260507001003 | 46 | 319 | 1.7 | 2.6 | 0.00 | 0.80 | 0.71 | 92 | 1012.2 |
| 20260507000503 | 46 | 329 | 1.7 | 5.2 | 0.00 | 0.81 | 0.71 | 91 | 1012.1 |
| 20260506235502 | 47 | 330 | 1.7 | 2.6 | 0.00 | 0.81 | 0.71 | 90 | 1011.9 |
| 20260506235003 | 47 | 318 | 0.9 | 1.7 | 0.00 | 0.81 | 0.71 | 90 | 1011.8 |
| 20260506234503 | 47 | 291 | 0.9 | 1.7 | 0.00 | 0.81 | 0.71 | 89 | 1011.7 |
| 20260506233503 | 47 | 219 | 0.0 | 0.9 | 0.00 | 0.82 | 0.71 | 88 | 1011.6 |
| 20260506233003 | 48 | 174 | 0.0 | 0.0 | 0.00 | 0.83 | 0.71 | 88 | 1011.5 |
| 20260506232003 | 47 | 172 | 0.0 | 0.0 | 0.00 | 0.83 | 0.71 | 89 | 1011.4 |
| 20260506231503 | 47 | 172 | 0.0 | 0.0 | 0.00 | 0.84 | 0.71 | 88 | 1011.4 |
| 20260506231003 | 47 | 172 | 0.0 | 0.9 | 0.00 | 0.84 | 0.71 | 88 | 1011.4 |
| 20260506230503 | 47 | 124 | 0.0 | 0.0 | 0.00 | 0.84 | 0.71 | 88 | 1011.3 |
| 20260506230003 | 47 | 124 | 0.0 | 0.0 | 0.00 | 0.85 | 0.71 | 87 | 1011.3 |
| 20260506225503 | 47 | 124 | 0.0 | 0.9 | 0.00 | 0.85 | 0.71 | 87 | 1011.2 |
| 20260506225003 | 47 | 124 | 0.0 | 0.9 | 0.00 | 0.86 | 0.71 | 87 | 1011.0 |
| 20260506224503 | 47 | 134 | 0.0 | 0.9 | 0.00 | 0.87 | 0.71 | 87 | 1010.9 |
| 20260506224003 | 47 | 128 | 0.0 | 0.9 | 0.00 | 0.88 | 0.71 | 87 | 1011.0 |
| 20260506223503 | 47 | 136 | 0.0 | 0.0 | 0.00 | 0.88 | 0.71 | 87 | 1010.9 |
| 20260506223003 | 47 | 136 | 0.0 | 0.0 | 0.00 | 0.88 | 0.71 | 87 | 1010.9 |
| 20260506222503 | 47 | 136 | 0.0 | 0.9 | 0.00 | 0.88 | 0.71 | 87 | 1011.0 |
| 20260506222003 | 47 | 135 | 0.0 | 0.0 | 0.00 | 0.88 | 0.71 | 86 | 1010.9 |
| 20260506221503 | 47 | 135 | 0.0 | 0.0 | 0.00 | 0.88 | 0.71 | 86 | 1011.1 |
| 20260506220503 | 47 | 107 | 0.0 | 0.9 | 0.00 | 0.88 | 0.71 | 85 | 1010.7 |
| 20260506215503 | 48 | 89 | 0.9 | 2.6 | 0.00 | 0.88 | 0.71 | 84 | 1010.7 |
| 20260506215004 | 48 | 172 | 0.0 | 0.9 | 0.00 | 0.88 | 0.71 | 84 | 1010.9 |
| 20260506214003 | 48 | 238 | 0.0 | 0.0 | 0.00 | 0.88 | 0.71 | 83 | 1011.1 |
| 20260506213503 | 48 | 240 | 0.0 | 0.9 | 0.00 | 0.88 | 0.71 | 83 | 1011.0 |
| 20260506213004 | 48 | 293 | 0.0 | 0.9 | 0.00 | 0.88 | 0.71 | 84 | 1011.0 |
| 20260506212503 | 48 | 293 | 0.0 | 0.9 | 0.00 | 0.88 | 0.71 | 85 | 1010.9 |
| 20260506212003 | 47 | 295 | 0.0 | 0.9 | 0.00 | 0.88 | 0.71 | 84 | 1010.9 |
| 20260506211503 | 47 | 296 | 0.9 | 0.9 | 0.00 | 0.88 | 0.71 | 84 | 1010.9 |
| 20260506211003 | 47 | 33 | 0.9 | 0.9 | 0.00 | 0.88 | 0.71 | 84 | 1010.9 |
| 20260506210503 | 47 | 31 | 0.9 | 1.7 | 0.00 | 0.88 | 0.71 | 84 | 1010.9 |
| 20260506210003 | 47 | 79 | 0.0 | 1.7 | 0.00 | 0.88 | 0.71 | 86 | 1010.9 |
| 20260506205503 | 46 | 123 | 0.9 | 1.7 | 0.00 | 0.88 | 0.71 | 86 | 1010.7 |
| 20260506205003 | 46 | 120 | 0.9 | 1.7 | 0.00 | 0.88 | 0.71 | 86 | 1010.7 |
| 20260506204504 | 46 | 96 | 0.0 | 0.9 | 0.00 | 0.88 | 0.71 | 86 | 1010.8 |
| 20260506203504 | 46 | 79 | 0.9 | 1.7 | 0.00 | 0.88 | 0.71 | 86 | 1010.7 |
| 20260506203003 | 46 | 74 | 0.9 | 1.7 | 0.00 | 0.88 | 0.71 | 86 | 1010.7 |
| 20260506202503 | 46 | 75 | 0.9 | 1.7 | 0.00 | 0.88 | 0.71 | 86 | 1010.7 |
| 20260506202003 | 46 | 37 | 1.7 | 2.6 | 0.00 | 0.88 | 0.71 | 86 | 1010.7 |
| 20260506201503 | 46 | 316 | 0.9 | 2.6 | 0.00 | 0.88 | 0.71 | 86 | 1010.9 |
| 20260506200503 | 46 | 27 | 0.0 | 2.6 | 0.00 | 0.88 | 0.71 | 86 | 1010.9 |
| 20260506200004 | 46 | 347 | 0.9 | 2.6 | 0.00 | 0.88 | 0.71 | 87 | 1010.9 |
| 20260506195004 | 46 | 306 | 2.6 | 2.6 | 0.00 | 0.88 | 0.71 | 87 | 1010.7 |
| 20260506194503 | 46 | 16 | 2.6 | 2.6 | 0.00 | 0.88 | 0.71 | 86 | 1010.7 |
| 20260506194003 | 46 | 294 | 1.7 | 4.3 | 0.00 | 0.88 | 0.71 | 86 | 1010.8 |
| 20260506193504 | 46 | 18 | 1.7 | 2.6 | 0.00 | 0.88 | 0.71 | 87 | 1010.7 |
| 20260506193003 | 46 | 297 | 1.7 | 4.3 | 0.00 | 0.88 | 0.71 | 87 | 1010.7 |
| 20260506192503 | 46 | 341 | 1.7 | 4.3 | 0.00 | 0.88 | 0.71 | 87 | 1010.6 |
| 20260506191503 | 45 | 18 | 2.6 | 5.2 | 0.00 | 0.88 | 0.71 | 88 | 1010.8 |
| 20260506191003 | 45 | 334 | 2.6 | 5.2 | 0.00 | 0.88 | 0.71 | 87 | 1010.8 |
| 20260506190503 | 45 | 323 | 2.6 | 4.3 | 0.00 | 0.88 | 0.71 | 87 | 1010.8 |
| 20260506190004 | 45 | 338 | 2.6 | 6.1 | 0.00 | 0.88 | 0.71 | 87 | 1010.8 |
| 20260506185503 | 45 | 358 | 1.7 | 5.2 | 0.00 | 0.88 | 0.71 | 89 | 1010.8 |
| 20260506185003 | 45 | 305 | 1.7 | 4.3 | 0.00 | 0.88 | 0.71 | 90 | 1010.7 |
| 20260506184503 | 45 | 355 | 2.6 | 4.3 | 0.00 | 0.88 | 0.71 | 89 | 1010.6 |
| 20260506184004 | 45 | 330 | 4.3 | 5.2 | 0.00 | 0.88 | 0.71 | 89 | 1010.7 |
| 20260506183503 | 45 | 5 | 2.6 | 4.3 | 0.00 | 0.88 | 0.71 | 91 | 1010.7 |
| 20260506183003 | 44 | 332 | 3.5 | 5.2 | 0.00 | 0.88 | 0.71 | 91 | 1010.6 |
| 20260506182503 | 44 | 332 | 3.5 | 6.1 | 0.00 | 0.88 | 0.71 | 92 | 1010.7 |
| 20260506182003 | 44 | 11 | 4.3 | 7.8 | 0.00 | 0.88 | 0.71 | 92 | 1011.0 |
| 20260506181503 | 44 | 0 | 3.5 | 7.0 | 0.00 | 0.88 | 0.71 | 92 | 1010.8 |
| 20260506181003 | 44 | 7 | 4.3 | 6.1 | 0.00 | 0.88 | 0.71 | 92 | 1011.1 |
| 20260506180503 | 44 | 318 | 2.6 | 7.8 | 0.00 | 0.88 | 0.71 | 92 | 1011.0 |
| 20260506180004 | 44 | 325 | 4.3 | 6.1 | 0.00 | 0.88 | 0.71 | 93 | 1010.8 |
| 20260506175503 | 44 | 341 | 4.3 | 7.0 | 0.00 | 0.88 | 0.71 | 93 | 1010.8 |
| 20260506175004 | 44 | 323 | 4.3 | 7.0 | 0.00 | 0.88 | 0.71 | 93 | 1010.7 |
| 20260506174503 | 44 | 330 | 3.5 | 6.1 | 0.00 | 0.88 | 0.71 | 94 | 1010.5 |
| 20260506174003 | 43 | 324 | 5.2 | 7.0 | 0.00 | 0.88 | 0.71 | 93 | 1010.5 |
| 20260506173503 | 44 | 19 | 2.6 | 6.1 | 0.00 | 0.88 | 0.71 | 94 | 1010.4 |
| 20260506172503 | 44 | 14 | 2.6 | 4.3 | 0.00 | 0.88 | 0.71 | 95 | 1010.2 |
| 20260506172003 | 43 | 338 | 2.6 | 5.2 | 0.00 | 0.88 | 0.71 | 94 | 1010.1 |
| 20260506171503 | 43 | 357 | 3.5 | 7.0 | 0.00 | 0.88 | 0.71 | 94 | 1010.1 |
| 20260506170503 | 43 | 1 | 4.3 | 5.2 | 0.00 | 0.88 | 0.71 | 94 | 1010.2 |
| 20260506170003 | 43 | 324 | 2.6 | 7.8 | 0.00 | 0.88 | 0.71 | 95 | 1010.0 |
| 20260506165503 | 44 | 2 | 5.2 | 8.7 | 0.00 | 0.88 | 0.71 | 94 | 1010.0 |
| 20260506165003 | 44 | 358 | 4.3 | 7.0 | 0.00 | 0.88 | 0.71 | 95 | 1010.2 |
| 20260506164003 | 44 | 333 | 3.5 | 7.0 | 0.00 | 0.88 | 0.71 | 95 | 1010.0 |
| 20260506163503 | 44 | 13 | 5.2 | 7.8 | 0.00 | 0.88 | 0.71 | 95 | 1009.9 |
| 20260506163004 | 44 | 50 | 3.5 | 7.8 | 0.00 | 0.88 | 0.71 | 95 | 1009.9 |
| 20260506162503 | 44 | 0 | 2.6 | 5.2 | 0.00 | 0.88 | 0.71 | 96 | 1009.9 |
| 20260506162003 | 43 | 330 | 3.5 | 7.0 | 0.00 | 0.88 | 0.71 | 96 | 1010.0 |
| 20260506161503 | 43 | 18 | 4.3 | 6.1 | 0.00 | 0.88 | 0.71 | 96 | 1009.9 |
| 20260506161003 | 43 | 342 | 1.7 | 4.3 | 0.01 | 0.88 | 0.71 | 96 | 1010.0 |
| 20260506160503 | 43 | 358 | 2.6 | 6.1 | 0.01 | 0.88 | 0.71 | 96 | 1010.1 |
| 20260506160003 | 43 | 349 | 1.7 | 6.1 | 0.01 | 0.88 | 0.71 | 96 | 1010.1 |
| 20260506155503 | 43 | 17 | 4.3 | 7.8 | 0.01 | 0.88 | 0.71 | 96 | 1010.1 |
| 20260506155003 | 43 | 16 | 2.6 | 5.2 | 0.01 | 0.88 | 0.71 | 96 | 1010.1 |
| 20260506154003 | 43 | 352 | 1.7 | 6.1 | 0.01 | 0.88 | 0.71 | 96 | 1009.9 |
| 20260506153503 | 43 | 337 | 2.6 | 6.1 | 0.01 | 0.88 | 0.71 | 96 | 1009.8 |
| 20260506153004 | 43 | 350 | 2.6 | 6.1 | 0.01 | 0.88 | 0.71 | 96 | 1009.9 |
| 20260506152503 | 43 | 12 | 1.7 | 2.6 | 0.01 | 0.88 | 0.71 | 96 | 1010.0 |
| 20260506152003 | 43 | 8 | 2.6 | 7.8 | 0.01 | 0.88 | 0.71 | 96 | 1009.9 |
| 20260506151503 | 43 | 352 | 1.7 | 5.2 | 0.01 | 0.88 | 0.71 | 96 | 1009.9 |
| 20260506150504 | 43 | 341 | 3.5 | 6.1 | 0.00 | 0.87 | 0.70 | 96 | 1009.8 |
| 20260506150003 | 43 | 27 | 1.7 | 5.2 | 0.00 | 0.87 | 0.70 | 96 | 1009.8 |
| 20260506145504 | 43 | 357 | 4.3 | 6.1 | 0.00 | 0.87 | 0.70 | 95 | 1009.8 |
| 20260506145003 | 43 | 34 | 0.9 | 2.6 | 0.00 | 0.87 | 0.70 | 96 | 1009.6 |
| 20260506143504 | 43 | 53 | 2.6 | 5.2 | 0.01 | 0.87 | 0.70 | 96 | 1009.5 |
| 20260506142504 | 43 | 55 | 3.5 | 7.0 | 0.01 | 0.87 | 0.70 | 96 | 1009.3 |
| 20260506142003 | 43 | 29 | 2.6 | 6.1 | 0.01 | 0.87 | 0.70 | 96 | 1009.3 |
| 20260506141003 | 43 | 56 | 4.3 | 7.0 | 0.01 | 0.87 | 0.70 | 95 | 1009.4 |
| 20260506140004 | 43 | 44 | 1.7 | 5.2 | 0.01 | 0.87 | 0.70 | 96 | 1009.5 |
| 20260506135503 | 43 | 68 | 2.6 | 7.0 | 0.02 | 0.87 | 0.70 | 96 | 1009.4 |
| 20260506135004 | 43 | 41 | 4.3 | 7.8 | 0.02 | 0.87 | 0.70 | 96 | 1009.5 |
| 20260506134504 | 43 | 58 | 2.6 | 6.1 | 0.01 | 0.86 | 0.69 | 96 | 1009.6 |
| 20260506134004 | 43 | 42 | 1.7 | 5.2 | 0.01 | 0.86 | 0.69 | 96 | 1009.5 |
| 20260506133504 | 43 | 46 | 2.6 | 8.7 | 0.01 | 0.86 | 0.69 | 96 | 1009.4 |
| 20260506133003 | 43 | 33 | 1.7 | 5.2 | 0.01 | 0.86 | 0.69 | 96 | 1009.3 |
| 20260506132504 | 43 | 35 | 1.7 | 5.2 | 0.01 | 0.86 | 0.69 | 96 | 1009.2 |
| 20260506131504 | 43 | 67 | 4.3 | 7.0 | 0.02 | 0.86 | 0.69 | 96 | 1009.2 |
| 20260506131004 | 43 | 70 | 2.6 | 7.0 | 0.02 | 0.86 | 0.69 | 96 | 1009.2 |
| 20260506130503 | 43 | 66 | 2.6 | 4.3 | 0.02 | 0.86 | 0.69 | 97 | 1009.2 |
| 20260506130005 | 43 | 75 | 2.6 | 5.2 | 0.03 | 0.86 | 0.69 | 97 | 1009.2 |
| 20260506125001 | 43 | 74 | 3.5 | 6.1 | 0.02 | 0.85 | 0.68 | 97 | 1009.3 |
| 20260506124502 | 42 | 66 | 2.6 | 5.2 | 0.03 | 0.85 | 0.68 | 97 | 1009.4 |
| 20260506124002 | 42 | 63 | 2.6 | 5.2 | 0.03 | 0.85 | 0.68 | 97 | 1009.3 |
| 20260506123502 | 42 | 64 | 2.6 | 6.1 | 0.03 | 0.85 | 0.68 | 97 | 1009.2 |
| 20260506123001 | 42 | 56 | 2.6 | 6.1 | 0.03 | 0.85 | 0.68 | 97 | 1009.2 |
| 20260506122501 | 42 | 72 | 2.6 | 5.2 | 0.03 | 0.85 | 0.68 | 97 | 1009.2 |
| 20260506122002 | 42 | 71 | 1.7 | 4.3 | 0.03 | 0.85 | 0.68 | 97 | 1009.3 |
| 20260506121002 | 42 | 68 | 3.5 | 4.3 | 0.03 | 0.84 | 0.67 | 97 | 1009.4 |
| 20260506120502 | 42 | 70 | 3.5 | 6.1 | 0.03 | 0.84 | 0.67 | 97 | 1009.4 |
| 20260506120002 | 42 | 65 | 2.6 | 4.3 | 0.03 | 0.83 | 0.66 | 97 | 1009.5 |
| 20260506115503 | 42 | 58 | 3.5 | 7.8 | 0.03 | 0.83 | 0.66 | 97 | 1009.4 |
| 20260506114501 | 42 | 69 | 4.3 | 6.1 | 0.03 | 0.82 | 0.65 | 97 | 1009.3 |
| 20260506113502 | 42 | 72 | 3.5 | 8.7 | 0.05 | 0.82 | 0.65 | 97 | 1009.2 |
| 20260506113001 | 42 | 61 | 4.3 | 7.0 | 0.06 | 0.82 | 0.65 | 97 | 1009.1 |
| 20260506112502 | 42 | 75 | 6.1 | 10.4 | 0.06 | 0.82 | 0.65 | 97 | 1008.8 |
| 20260506112002 | 43 | 61 | 5.2 | 8.7 | 0.07 | 0.82 | 0.65 | 97 | 1008.7 |
| 20260506111502 | 43 | 88 | 5.2 | 10.4 | 0.08 | 0.82 | 0.65 | 98 | 1009.0 |
| 20260506111002 | 43 | 66 | 4.3 | 8.7 | 0.08 | 0.81 | 0.64 | 98 | 1009.1 |
| 20260506110502 | 43 | 97 | 2.6 | 5.2 | 0.09 | 0.81 | 0.64 | 98 | 1009.0 |
| 20260506110002 | 43 | 65 | 2.6 | 5.2 | 0.08 | 0.80 | 0.63 | 98 | 1009.1 |
| 20260506105502 | 43 | 73 | 3.5 | 5.2 | 0.09 | 0.80 | 0.63 | 98 | 1009.2 |
| 20260506105001 | 43 | 67 | 2.6 | 7.0 | 0.09 | 0.79 | 0.62 | 98 | 1009.1 |
| 20260506104001 | 43 | 54 | 2.6 | 7.0 | 0.09 | 0.78 | 0.61 | 98 | 1009.2 |
| 20260506103502 | 43 | 66 | 2.6 | 4.3 | 0.09 | 0.77 | 0.60 | 98 | 1009.5 |
| 20260506103002 | 43 | 74 | 0.9 | 1.7 | 0.08 | 0.76 | 0.59 | 98 | 1009.6 |
| 20260506102002 | 43 | 41 | 1.7 | 4.3 | 0.07 | 0.75 | 0.58 | 98 | 1009.3 |
| 20260506101502 | 43 | 51 | 1.7 | 2.6 | 0.06 | 0.74 | 0.57 | 98 | 1009.3 |
| 20260506101001 | 43 | 19 | 1.7 | 4.3 | 0.06 | 0.73 | 0.56 | 98 | 1009.4 |
| 20260506100001 | 43 | 44 | 1.7 | 4.3 | 0.05 | 0.72 | 0.55 | 98 | 1009.4 |
| 20260506095002 | 43 | 57 | 0.9 | 5.2 | 0.04 | 0.70 | 0.53 | 98 | 1009.5 |
| 20260506094501 | 43 | 47 | 0.9 | 6.1 | 0.03 | 0.69 | 0.52 | 98 | 1009.4 |
| 20260506094002 | 43 | 40 | 2.6 | 6.1 | 0.04 | 0.69 | 0.52 | 98 | 1009.2 |
| 20260506093502 | 43 | 77 | 0.9 | 4.3 | 0.04 | 0.68 | 0.51 | 98 | 1009.2 |
| 20260506093002 | 43 | 9 | 1.7 | 2.6 | 0.04 | 0.68 | 0.51 | 98 | 1009.1 |
| 20260506092501 | 43 | 46 | 1.7 | 7.0 | 0.05 | 0.68 | 0.51 | 98 | 1009.0 |
| 20260506092002 | 43 | 43 | 2.6 | 4.3 | 0.06 | 0.68 | 0.51 | 98 | 1008.8 |
| 20260506091502 | 43 | 43 | 4.3 | 7.8 | 0.06 | 0.68 | 0.51 | 98 | 1008.7 |
| 20260506091001 | 43 | 61 | 2.6 | 4.3 | 0.06 | 0.67 | 0.50 | 98 | 1008.7 |
| 20260506090502 | 43 | 57 | 2.6 | 4.3 | 0.07 | 0.67 | 0.50 | 98 | 1009.0 |
| 20260506085502 | 43 | 64 | 1.7 | 2.6 | 0.08 | 0.67 | 0.50 | 98 | 1009.3 |
| 20260506085002 | 43 | 64 | 1.7 | 2.6 | 0.08 | 0.66 | 0.49 | 98 | 1009.3 |
| 20260506084502 | 43 | 42 | 1.7 | 4.3 | 0.09 | 0.66 | 0.49 | 98 | 1009.4 |
| 20260506083502 | 43 | 70 | 2.6 | 5.2 | 0.11 | 0.64 | 0.47 | 98 | 1009.2 |
| 20260506082002 | 43 | 73 | 0.9 | 2.6 | 0.13 | 0.62 | 0.45 | 98 | 1009.6 |
| 20260506081502 | 43 | 76 | 1.7 | 4.3 | 0.13 | 0.62 | 0.45 | 97 | 1009.5 |
| 20260506081002 | 43 | 68 | 1.7 | 2.6 | 0.13 | 0.61 | 0.44 | 97 | 1009.5 |
| 20260506080502 | 43 | 102 | 1.7 | 5.2 | 0.13 | 0.60 | 0.43 | 97 | 1009.6 |
| 20260506073502 | 44 | 75 | 2.6 | 6.1 | 0.11 | 0.53 | 0.36 | 98 | 1009.5 |
| 20260506073003 | 44 | 57 | 4.3 | 6.1 | 0.11 | 0.52 | 0.35 | 98 | 1009.2 |
| 20260506072502 | 44 | 72 | 3.5 | 7.0 | 0.12 | 0.51 | 0.34 | 98 | 1009.0 |
| 20260506072003 | 45 | 73 | 2.6 | 5.2 | 0.12 | 0.49 | 0.32 | 97 | 1009.1 |
| 20260506071502 | 45 | 53 | 1.7 | 5.2 | 0.13 | 0.49 | 0.32 | 97 | 1009.1 |
| 20260506071002 | 45 | 60 | 3.5 | 6.1 | 0.14 | 0.48 | 0.31 | 97 | 1009.2 |
| 20260506070502 | 45 | 49 | 2.6 | 5.2 | 0.14 | 0.47 | 0.30 | 97 | 1009.1 |
| 20260506062502 | 46 | 42 | 2.6 | 7.0 | 0.11 | 0.39 | 0.22 | 97 | 1009.8 |
| 20260506062002 | 46 | 355 | 1.7 | 5.2 | 0.10 | 0.37 | 0.20 | 97 | 1010.0 |
| 20260506061502 | 46 | 19 | 0.9 | 4.3 | 0.10 | 0.36 | 0.19 | 97 | 1009.8 |
| 20260506061002 | 46 | 43 | 2.6 | 5.2 | 0.09 | 0.34 | 0.17 | 97 | 1009.6 |